sensor_id;sensor_type;location;lat;lon;timestamp;temperature;humidity
34406;DHT22;20658;45.630;8.886;2022-11-15T00:00:07;6.10;99.90
34406;DHT22;20658;45.630;8.886;2022-11-15T00:03:00;6.10;99.90
34406;DHT22;20658;45.630;8.886;2022-11-15T00:05:53;6.10;99.90
34406;DHT22;20658;45.630;8.886;2022-11-15T00:08:44;6.00;99.90
34406;DHT22;20658;45.630;8.886;2022-11-15T00:11:36;6.00;99.90
34406;DHT22;20658;45.630;8.886;2022-11-15T00:14:23;6.30;99.90
34406;DHT22;20658;45.630;8.886;2022-11-15T00:17:16;6.00;99.90
34406;DHT22;20658;45.630;8.886;2022-11-15T00:20:09;6.00;99.90
34406;DHT22;20658;45.630;8.886;2022-11-15T00:23:03;5.90;99.90
34406;DHT22;20658;45.630;8.886;2022-11-15T00:25:56;5.90;99.90
34406;DHT22;20658;45.630;8.886;2022-11-15T00:28:48;5.90;99.90
34406;DHT22;20658;45.630;8.886;2022-11-15T00:31:40;5.90;99.90
34406;DHT22;20658;45.630;8.886;2022-11-15T00:34:28;5.90;99.90
34406;DHT22;20658;45.630;8.886;2022-11-15T00:37:20;5.90;99.90
34406;DHT22;20658;45.630;8.886;2022-11-15T00:40:08;5.90;99.90
34406;DHT22;20658;45.630;8.886;2022-11-15T00:42:58;5.80;99.90
34406;DHT22;20658;45.630;8.886;2022-11-15T00:45:44;5.90;99.90
34406;DHT22;20658;45.630;8.886;2022-11-15T00:48:31;5.80;99.90
34406;DHT22;20658;45.630;8.886;2022-11-15T00:51:25;6.00;99.90
34406;DHT22;20658;45.630;8.886;2022-11-15T00:54:12;5.80;99.90
34406;DHT22;20658;45.630;8.886;2022-11-15T00:56:58;6.00;99.90
34406;DHT22;20658;45.630;8.886;2022-11-15T00:59:50;5.80;99.90
34406;DHT22;20658;45.630;8.886;2022-11-15T01:02:42;5.90;99.90
34406;DHT22;20658;45.630;8.886;2022-11-15T01:05:36;5.80;99.90
34406;DHT22;20658;45.630;8.886;2022-11-15T01:08:29;5.80;99.90
34406;DHT22;20658;45.630;8.886;2022-11-15T01:11:21;5.70;99.90
34406;DHT22;20658;45.630;8.886;2022-11-15T01:14:13;5.90;99.90
34406;DHT22;20658;45.630;8.886;2022-11-15T01:17:00;6.20;99.90
34406;DHT22;20658;45.630;8.886;2022-11-15T01:19:48;5.70;99.90
34406;DHT22;20658;45.630;8.886;2022-11-15T01:22:34;5.70;99.90
34406;DHT22;20658;45.630;8.886;2022-11-15T01:25:23;5.80;99.90
34406;DHT22;20658;45.630;8.886;2022-11-15T01:28:15;5.80;99.90
34406;DHT22;20658;45.630;8.886;2022-11-15T01:31:10;5.80;99.90
34406;DHT22;20658;45.630;8.886;2022-11-15T01:34:03;5.80;99.90
34406;DHT22;20658;45.630;8.886;2022-11-15T01:36:55;5.80;99.90
34406;DHT22;20658;45.630;8.886;2022-11-15T01:39:47;5.80;99.90
34406;DHT22;20658;45.630;8.886;2022-11-15T01:42:41;5.80;99.90
34406;DHT22;20658;45.630;8.886;2022-11-15T01:45:33;5.80;99.90
34406;DHT22;20658;45.630;8.886;2022-11-15T01:48:22;5.80;99.90
34406;DHT22;20658;45.630;8.886;2022-11-15T01:51:12;5.80;99.90
34406;DHT22;20658;45.630;8.886;2022-11-15T01:54:05;6.20;99.90
34406;DHT22;20658;45.630;8.886;2022-11-15T01:57:01;5.80;99.90
34406;DHT22;20658;45.630;8.886;2022-11-15T01:59:58;5.90;99.90
34406;DHT22;20658;45.630;8.886;2022-11-15T02:02:51;5.80;99.90
34406;DHT22;20658;45.630;8.886;2022-11-15T02:05:44;5.80;99.90
34406;DHT22;20658;45.630;8.886;2022-11-15T02:08:35;5.80;99.90
34406;DHT22;20658;45.630;8.886;2022-11-15T02:11:28;5.80;99.90
34406;DHT22;20658;45.630;8.886;2022-11-15T02:14:20;5.80;99.90
34406;DHT22;20658;45.630;8.886;2022-11-15T02:17:25;5.80;99.90
34406;DHT22;20658;45.630;8.886;2022-11-15T02:20:41;5.80;99.90
34406;DHT22;20658;45.630;8.886;2022-11-15T02:24:18;5.70;99.90
34406;DHT22;20658;45.630;8.886;2022-11-15T02:28:14;5.80;99.90
34406;DHT22;20658;45.630;8.886;2022-11-15T02:31:11;5.70;99.90
34406;DHT22;20658;45.630;8.886;2022-11-15T02:34:05;5.70;99.90
34406;DHT22;20658;45.630;8.886;2022-11-15T02:37:01;5.70;99.90
34406;DHT22;20658;45.630;8.886;2022-11-15T02:39:51;5.70;99.90
34406;DHT22;20658;45.630;8.886;2022-11-15T02:42:47;5.60;99.90
34406;DHT22;20658;45.630;8.886;2022-11-15T02:46:03;5.60;99.90
34406;DHT22;20658;45.630;8.886;2022-11-15T02:48:55;5.70;99.90
34406;DHT22;20658;45.630;8.886;2022-11-15T02:51:44;5.70;99.90
34406;DHT22;20658;45.630;8.886;2022-11-15T02:54:38;5.70;99.90
34406;DHT22;20658;45.630;8.886;2022-11-15T02:57:38;5.70;99.90
34406;DHT22;20658;45.630;8.886;2022-11-15T03:00:38;5.70;99.90
34406;DHT22;20658;45.630;8.886;2022-11-15T03:03:48;5.70;99.90
34406;DHT22;20658;45.630;8.886;2022-11-15T03:06:48;5.70;99.90
34406;DHT22;20658;45.630;8.886;2022-11-15T03:09:41;5.80;99.90
34406;DHT22;20658;45.630;8.886;2022-11-15T03:12:41;5.80;99.90
34406;DHT22;20658;45.630;8.886;2022-11-15T03:15:39;5.80;99.90
34406;DHT22;20658;45.630;8.886;2022-11-15T03:18:32;5.80;99.90
34406;DHT22;20658;45.630;8.886;2022-11-15T03:21:22;5.80;99.90
34406;DHT22;20658;45.630;8.886;2022-11-15T03:24:11;5.90;99.90
34406;DHT22;20658;45.630;8.886;2022-11-15T03:26:59;5.90;99.90
34406;DHT22;20658;45.630;8.886;2022-11-15T03:29:51;5.90;99.90
34406;DHT22;20658;45.630;8.886;2022-11-15T03:32:47;5.90;99.90
34406;DHT22;20658;45.630;8.886;2022-11-15T03:35:43;6.00;99.90
34406;DHT22;20658;45.630;8.886;2022-11-15T03:38:38;6.10;99.90
34406;DHT22;20658;45.630;8.886;2022-11-15T03:41:31;6.00;99.90
34406;DHT22;20658;45.630;8.886;2022-11-15T03:44:37;6.10;99.90
34406;DHT22;20658;45.630;8.886;2022-11-15T03:47:30;6.10;99.90
34406;DHT22;20658;45.630;8.886;2022-11-15T03:50:25;6.10;99.90
34406;DHT22;20658;45.630;8.886;2022-11-15T03:53:17;6.20;99.90
34406;DHT22;20658;45.630;8.886;2022-11-15T03:56:06;6.20;99.90
34406;DHT22;20658;45.630;8.886;2022-11-15T03:58:58;6.10;99.90
34406;DHT22;20658;45.630;8.886;2022-11-15T04:01:45;6.20;99.90
34406;DHT22;20658;45.630;8.886;2022-11-15T04:04:32;6.20;99.90
34406;DHT22;20658;45.630;8.886;2022-11-15T04:07:24;6.20;99.90
34406;DHT22;20658;45.630;8.886;2022-11-15T04:10:16;6.30;99.90
34406;DHT22;20658;45.630;8.886;2022-11-15T04:13:09;6.30;99.90
34406;DHT22;20658;45.630;8.886;2022-11-15T04:15:56;6.30;99.90
34406;DHT22;20658;45.630;8.886;2022-11-15T04:18:48;6.30;99.90
34406;DHT22;20658;45.630;8.886;2022-11-15T04:22:00;6.30;99.90
34406;DHT22;20658;45.630;8.886;2022-11-15T04:25:11;6.30;99.90
34406;DHT22;20658;45.630;8.886;2022-11-15T04:28:03;6.30;99.90
34406;DHT22;20658;45.630;8.886;2022-11-15T04:30:56;6.30;99.90
34406;DHT22;20658;45.630;8.886;2022-11-15T04:33:49;6.40;99.90
34406;DHT22;20658;45.630;8.886;2022-11-15T04:36:41;6.40;99.90
34406;DHT22;20658;45.630;8.886;2022-11-15T04:39:50;6.40;99.90
34406;DHT22;20658;45.630;8.886;2022-11-15T04:42:42;6.40;99.90
34406;DHT22;20658;45.630;8.886;2022-11-15T04:45:34;6.40;99.90
34406;DHT22;20658;45.630;8.886;2022-11-15T04:48:27;6.40;99.90
34406;DHT22;20658;45.630;8.886;2022-11-15T04:51:20;6.50;99.90
34406;DHT22;20658;45.630;8.886;2022-11-15T04:54:12;6.40;99.90
34406;DHT22;20658;45.630;8.886;2022-11-15T04:57:03;6.50;99.90
34406;DHT22;20658;45.630;8.886;2022-11-15T04:59:55;6.50;99.90
34406;DHT22;20658;45.630;8.886;2022-11-15T05:02:47;6.50;99.90
34406;DHT22;20658;45.630;8.886;2022-11-15T05:05:58;6.50;99.90
34406;DHT22;20658;45.630;8.886;2022-11-15T05:08:51;6.60;99.90
34406;DHT22;20658;45.630;8.886;2022-11-15T05:11:38;6.50;99.90
34406;DHT22;20658;45.630;8.886;2022-11-15T05:14:29;6.60;99.90
34406;DHT22;20658;45.630;8.886;2022-11-15T05:17:21;6.60;99.90
34406;DHT22;20658;45.630;8.886;2022-11-15T05:20:13;6.70;99.90
34406;DHT22;20658;45.630;8.886;2022-11-15T05:23:07;6.70;99.90
34406;DHT22;20658;45.630;8.886;2022-11-15T05:25:59;6.70;99.90
34406;DHT22;20658;45.630;8.886;2022-11-15T05:28:55;6.70;99.90
34406;DHT22;20658;45.630;8.886;2022-11-15T05:31:48;6.80;99.90
34406;DHT22;20658;45.630;8.886;2022-11-15T05:34:39;6.80;99.90
34406;DHT22;20658;45.630;8.886;2022-11-15T05:37:26;6.80;99.90
34406;DHT22;20658;45.630;8.886;2022-11-15T05:40:21;6.80;99.90
34406;DHT22;20658;45.630;8.886;2022-11-15T05:43:14;6.80;99.90
34406;DHT22;20658;45.630;8.886;2022-11-15T05:46:02;6.80;99.90
34406;DHT22;20658;45.630;8.886;2022-11-15T05:48:56;6.90;99.90
34406;DHT22;20658;45.630;8.886;2022-11-15T05:51:49;6.90;99.90
34406;DHT22;20658;45.630;8.886;2022-11-15T05:54:37;6.90;99.90
34406;DHT22;20658;45.630;8.886;2022-11-15T05:57:30;6.90;99.90
34406;DHT22;20658;45.630;8.886;2022-11-15T06:00:22;6.80;99.90
34406;DHT22;20658;45.630;8.886;2022-11-15T06:03:15;7.00;99.90
34406;DHT22;20658;45.630;8.886;2022-11-15T06:06:07;7.00;99.90
34406;DHT22;20658;45.630;8.886;2022-11-15T06:08:59;7.00;99.90
34406;DHT22;20658;45.630;8.886;2022-11-15T06:11:50;7.00;99.90
34406;DHT22;20658;45.630;8.886;2022-11-15T06:14:43;7.00;99.90
34406;DHT22;20658;45.630;8.886;2022-11-15T06:17:35;7.00;99.90
34406;DHT22;20658;45.630;8.886;2022-11-15T06:20:28;7.00;99.90
34406;DHT22;20658;45.630;8.886;2022-11-15T06:23:16;7.00;99.90
34406;DHT22;20658;45.630;8.886;2022-11-15T06:26:08;7.10;99.90
34406;DHT22;20658;45.630;8.886;2022-11-15T06:28:55;7.10;99.90
34406;DHT22;20658;45.630;8.886;2022-11-15T06:31:48;7.10;99.90
34406;DHT22;20658;45.630;8.886;2022-11-15T06:34:40;7.10;99.90
34406;DHT22;20658;45.630;8.886;2022-11-15T06:37:33;7.10;99.90
34406;DHT22;20658;45.630;8.886;2022-11-15T06:40:20;7.20;99.90
34406;DHT22;20658;45.630;8.886;2022-11-15T06:43:13;7.30;99.90
34406;DHT22;20658;45.630;8.886;2022-11-15T06:46:07;7.30;99.90
34406;DHT22;20658;45.630;8.886;2022-11-15T06:49:00;7.30;99.90
34406;DHT22;20658;45.630;8.886;2022-11-15T06:51:52;7.30;99.90
34406;DHT22;20658;45.630;8.886;2022-11-15T06:54:43;7.30;99.90
34406;DHT22;20658;45.630;8.886;2022-11-15T06:57:31;7.30;99.90
34406;DHT22;20658;45.630;8.886;2022-11-15T07:00:20;7.40;99.90
34406;DHT22;20658;45.630;8.886;2022-11-15T07:03:12;7.40;99.90
34406;DHT22;20658;45.630;8.886;2022-11-15T07:06:06;7.40;99.90
34406;DHT22;20658;45.630;8.886;2022-11-15T07:08:54;7.40;99.90
34406;DHT22;20658;45.630;8.886;2022-11-15T07:11:41;7.50;99.90
34406;DHT22;20658;45.630;8.886;2022-11-15T07:14:28;7.50;99.90
34406;DHT22;20658;45.630;8.886;2022-11-15T07:17:15;7.50;99.90
34406;DHT22;20658;45.630;8.886;2022-11-15T07:20:01;7.60;99.90
34406;DHT22;20658;45.630;8.886;2022-11-15T07:22:50;7.60;99.90
34406;DHT22;20658;45.630;8.886;2022-11-15T07:25:42;7.60;99.90
34406;DHT22;20658;45.630;8.886;2022-11-15T07:28:29;7.70;99.90
34406;DHT22;20658;45.630;8.886;2022-11-15T07:31:16;7.70;99.90
34406;DHT22;20658;45.630;8.886;2022-11-15T07:34:03;7.70;99.90
34406;DHT22;20658;45.630;8.886;2022-11-15T07:36:50;7.70;99.90
34406;DHT22;20658;45.630;8.886;2022-11-15T07:39:43;7.70;99.90
34406;DHT22;20658;45.630;8.886;2022-11-15T07:42:31;7.70;99.90
34406;DHT22;20658;45.630;8.886;2022-11-15T07:45:40;7.80;99.90
34406;DHT22;20658;45.630;8.886;2022-11-15T07:48:33;7.80;99.90
34406;DHT22;20658;45.630;8.886;2022-11-15T07:51:20;7.90;99.90
34406;DHT22;20658;45.630;8.886;2022-11-15T07:54:07;7.90;99.90
34406;DHT22;20658;45.630;8.886;2022-11-15T07:56:55;8.00;99.90
34406;DHT22;20658;45.630;8.886;2022-11-15T07:59:47;7.90;99.90
34406;DHT22;20658;45.630;8.886;2022-11-15T08:02:39;7.90;99.90
34406;DHT22;20658;45.630;8.886;2022-11-15T08:05:31;7.90;99.90
34406;DHT22;20658;45.630;8.886;2022-11-15T08:08:19;8.00;99.90
34406;DHT22;20658;45.630;8.886;2022-11-15T08:11:10;8.00;99.90
34406;DHT22;20658;45.630;8.886;2022-11-15T08:13:59;8.00;99.90
34406;DHT22;20658;45.630;8.886;2022-11-15T08:16:51;8.00;99.90
34406;DHT22;20658;45.630;8.886;2022-11-15T08:19:38;8.10;99.90
34406;DHT22;20658;45.630;8.886;2022-11-15T08:22:30;8.10;99.90
34406;DHT22;20658;45.630;8.886;2022-11-15T08:25:22;8.10;99.90
34406;DHT22;20658;45.630;8.886;2022-11-15T08:28:11;8.20;99.90
34406;DHT22;20658;45.630;8.886;2022-11-15T08:31:00;8.30;99.90
34406;DHT22;20658;45.630;8.886;2022-11-15T08:33:52;8.30;99.90
34406;DHT22;20658;45.630;8.886;2022-11-15T08:36:44;8.30;99.90
34406;DHT22;20658;45.630;8.886;2022-11-15T08:39:38;8.30;99.90
34406;DHT22;20658;45.630;8.886;2022-11-15T08:42:30;8.30;99.90
34406;DHT22;20658;45.630;8.886;2022-11-15T08:45:18;8.30;99.90
34406;DHT22;20658;45.630;8.886;2022-11-15T08:48:06;8.40;99.90
34406;DHT22;20658;45.630;8.886;2022-11-15T08:50:53;8.40;99.90
34406;DHT22;20658;45.630;8.886;2022-11-15T08:53:46;8.50;99.90
34406;DHT22;20658;45.630;8.886;2022-11-15T08:56:33;8.60;99.90
34406;DHT22;20658;45.630;8.886;2022-11-15T08:59:25;8.60;99.90
34406;DHT22;20658;45.630;8.886;2022-11-15T09:02:17;8.70;99.90
34406;DHT22;20658;45.630;8.886;2022-11-15T09:05:10;8.70;99.90
34406;DHT22;20658;45.630;8.886;2022-11-15T09:07:57;8.80;99.90
34406;DHT22;20658;45.630;8.886;2022-11-15T09:10:49;8.80;99.90
34406;DHT22;20658;45.630;8.886;2022-11-15T09:13:41;8.90;99.90
34406;DHT22;20658;45.630;8.886;2022-11-15T09:16:30;9.00;99.90
34406;DHT22;20658;45.630;8.886;2022-11-15T09:19:18;9.00;99.90
34406;DHT22;20658;45.630;8.886;2022-11-15T09:22:07;9.00;99.90
34406;DHT22;20658;45.630;8.886;2022-11-15T09:24:54;9.00;99.90
34406;DHT22;20658;45.630;8.886;2022-11-15T09:27:42;9.00;99.90
34406;DHT22;20658;45.630;8.886;2022-11-15T09:30:34;9.10;99.90
34406;DHT22;20658;45.630;8.886;2022-11-15T09:33:27;9.10;99.90
34406;DHT22;20658;45.630;8.886;2022-11-15T09:36:19;9.20;99.90
34406;DHT22;20658;45.630;8.886;2022-11-15T09:39:07;9.20;99.90
34406;DHT22;20658;45.630;8.886;2022-11-15T09:42:20;9.20;99.90
34406;DHT22;20658;45.630;8.886;2022-11-15T09:45:17;9.20;99.90
34406;DHT22;20658;45.630;8.886;2022-11-15T09:48:23;9.20;99.90
34406;DHT22;20658;45.630;8.886;2022-11-15T09:51:30;9.20;99.90
34406;DHT22;20658;45.630;8.886;2022-11-15T09:54:09;9.30;99.90
34406;DHT22;20658;45.630;8.886;2022-11-15T09:56:42;9.40;99.90
34406;DHT22;20658;45.630;8.886;2022-11-15T09:59:35;9.40;99.90
34406;DHT22;20658;45.630;8.886;2022-11-15T10:02:19;9.40;99.90
34406;DHT22;20658;45.630;8.886;2022-11-15T10:04:52;9.30;99.90
34406;DHT22;20658;45.630;8.886;2022-11-15T10:07:31;9.40;99.90
34406;DHT22;20658;45.630;8.886;2022-11-15T10:10:10;9.40;99.90
34406;DHT22;20658;45.630;8.886;2022-11-15T10:12:49;9.40;99.90
34406;DHT22;20658;45.630;8.886;2022-11-15T10:15:24;9.40;99.90
34406;DHT22;20658;45.630;8.886;2022-11-15T10:18:12;9.50;99.90
34406;DHT22;20658;45.630;8.886;2022-11-15T10:20:47;9.50;99.90
34406;DHT22;20658;45.630;8.886;2022-11-15T10:23:19;9.50;99.90
34406;DHT22;20658;45.630;8.886;2022-11-15T10:25:58;9.60;99.90
34406;DHT22;20658;45.630;8.886;2022-11-15T10:28:28;9.50;99.90
34406;DHT22;20658;45.630;8.886;2022-11-15T10:31:03;9.50;99.90
34406;DHT22;20658;45.630;8.886;2022-11-15T10:33:38;9.50;99.90
34406;DHT22;20658;45.630;8.886;2022-11-15T10:36:21;9.50;99.90
34406;DHT22;20658;45.630;8.886;2022-11-15T10:38:56;9.50;99.90
34406;DHT22;20658;45.630;8.886;2022-11-15T10:41:36;9.50;99.90
34406;DHT22;20658;45.630;8.886;2022-11-15T10:44:23;9.50;99.90
34406;DHT22;20658;45.630;8.886;2022-11-15T10:47:07;9.50;99.90
34406;DHT22;20658;45.630;8.886;2022-11-15T10:50:01;9.50;99.90
34406;DHT22;20658;45.630;8.886;2022-11-15T10:52:35;9.50;99.90
34406;DHT22;20658;45.630;8.886;2022-11-15T10:55:21;9.50;99.90
34406;DHT22;20658;45.630;8.886;2022-11-15T10:57:56;9.60;99.90
34406;DHT22;20658;45.630;8.886;2022-11-15T11:00:35;9.60;99.90
34406;DHT22;20658;45.630;8.886;2022-11-15T11:03:21;9.60;99.90
34406;DHT22;20658;45.630;8.886;2022-11-15T11:06:08;9.70;99.90
34406;DHT22;20658;45.630;8.886;2022-11-15T11:08:39;9.80;99.90
34406;DHT22;20658;45.630;8.886;2022-11-15T11:11:08;9.70;99.90
34406;DHT22;20658;45.630;8.886;2022-11-15T11:13:39;9.70;99.90
34406;DHT22;20658;45.630;8.886;2022-11-15T11:16:42;9.90;99.90
34406;DHT22;20658;45.630;8.886;2022-11-15T11:19:32;9.80;99.90
34406;DHT22;20658;45.630;8.886;2022-11-15T11:22:18;9.80;99.90
34406;DHT22;20658;45.630;8.886;2022-11-15T11:25:17;9.90;99.90
34406;DHT22;20658;45.630;8.886;2022-11-15T11:28:08;9.90;99.90
34406;DHT22;20658;45.630;8.886;2022-11-15T11:30:50;9.90;99.90
34406;DHT22;20658;45.630;8.886;2022-11-15T11:33:32;9.90;99.90
34406;DHT22;20658;45.630;8.886;2022-11-15T11:36:11;10.00;99.90
34406;DHT22;20658;45.630;8.886;2022-11-15T11:38:57;10.10;99.90
34406;DHT22;20658;45.630;8.886;2022-11-15T11:41:46;10.10;99.90
34406;DHT22;20658;45.630;8.886;2022-11-15T11:44:35;10.10;99.90
34406;DHT22;20658;45.630;8.886;2022-11-15T11:47:20;10.10;99.90
34406;DHT22;20658;45.630;8.886;2022-11-15T11:49:53;10.20;99.90
34406;DHT22;20658;45.630;8.886;2022-11-15T11:52:28;10.30;99.90
34406;DHT22;20658;45.630;8.886;2022-11-15T11:55:03;10.30;99.90
34406;DHT22;20658;45.630;8.886;2022-11-15T11:57:44;10.30;99.90
34406;DHT22;20658;45.630;8.886;2022-11-15T12:00:18;10.30;99.90
34406;DHT22;20658;45.630;8.886;2022-11-15T12:03:04;10.30;99.90
34406;DHT22;20658;45.630;8.886;2022-11-15T12:05:39;10.30;99.90
34406;DHT22;20658;45.630;8.886;2022-11-15T12:08:25;10.20;99.90
34406;DHT22;20658;45.630;8.886;2022-11-15T12:11:07;10.20;99.90
34406;DHT22;20658;45.630;8.886;2022-11-15T12:13:38;10.20;99.90
34406;DHT22;20658;45.630;8.886;2022-11-15T12:16:12;10.20;99.90
34406;DHT22;20658;45.630;8.886;2022-11-15T12:18:47;10.20;99.90
34406;DHT22;20658;45.630;8.886;2022-11-15T12:21:21;10.20;99.90
34406;DHT22;20658;45.630;8.886;2022-11-15T12:24:00;10.20;99.90
34406;DHT22;20658;45.630;8.886;2022-11-15T12:26:34;10.20;99.90
34406;DHT22;20658;45.630;8.886;2022-11-15T12:29:15;10.10;99.90
34406;DHT22;20658;45.630;8.886;2022-11-15T12:31:49;10.10;99.90
34406;DHT22;20658;45.630;8.886;2022-11-15T12:34:43;10.10;99.90
34406;DHT22;20658;45.630;8.886;2022-11-15T12:37:46;10.10;99.90
34406;DHT22;20658;45.630;8.886;2022-11-15T12:40:33;10.20;99.90
34406;DHT22;20658;45.630;8.886;2022-11-15T12:46:12;10.20;99.90
34406;DHT22;20658;45.630;8.886;2022-11-15T12:48:50;10.20;99.90
34406;DHT22;20658;45.630;8.886;2022-11-15T12:54:56;10.30;99.90
34406;DHT22;20658;45.630;8.886;2022-11-15T12:57:41;10.30;99.90
34406;DHT22;20658;45.630;8.886;2022-11-15T13:00:43;10.20;99.90
34406;DHT22;20658;45.630;8.886;2022-11-15T13:03:36;10.20;99.90
34406;DHT22;20658;45.630;8.886;2022-11-15T13:06:42;10.20;99.90
34406;DHT22;20658;45.630;8.886;2022-11-15T13:09:50;10.30;99.90
34406;DHT22;20658;45.630;8.886;2022-11-15T13:12:49;10.40;99.90
34406;DHT22;20658;45.630;8.886;2022-11-15T13:18:32;10.40;99.90
34406;DHT22;20658;45.630;8.886;2022-11-15T13:21:19;10.40;99.90
34406;DHT22;20658;45.630;8.886;2022-11-15T13:24:13;10.40;99.90
34406;DHT22;20658;45.630;8.886;2022-11-15T13:26:42;10.30;99.90
34406;DHT22;20658;45.630;8.886;2022-11-15T13:29:18;10.30;99.90
34406;DHT22;20658;45.630;8.886;2022-11-15T13:31:48;10.50;99.90
34406;DHT22;20658;45.630;8.886;2022-11-15T13:34:28;10.30;99.90
34406;DHT22;20658;45.630;8.886;2022-11-15T13:36:59;10.30;99.90
34406;DHT22;20658;45.630;8.886;2022-11-15T13:39:31;10.20;99.90
34406;DHT22;20658;45.630;8.886;2022-11-15T13:42:14;10.20;99.90
34406;DHT22;20658;45.630;8.886;2022-11-15T13:44:55;10.30;99.90
34406;DHT22;20658;45.630;8.886;2022-11-15T13:47:26;10.30;99.90
34406;DHT22;20658;45.630;8.886;2022-11-15T13:49:57;10.30;99.90
34406;DHT22;20658;45.630;8.886;2022-11-15T13:52:28;10.20;99.90
34406;DHT22;20658;45.630;8.886;2022-11-15T13:55:02;10.70;99.90
34406;DHT22;20658;45.630;8.886;2022-11-15T13:57:42;10.50;99.90
34406;DHT22;20658;45.630;8.886;2022-11-15T14:00:26;10.50;99.90
34406;DHT22;20658;45.630;8.886;2022-11-15T14:03:07;10.20;99.90
34406;DHT22;20658;45.630;8.886;2022-11-15T14:05:41;10.20;99.90
34406;DHT22;20658;45.630;8.886;2022-11-15T14:08:22;10.20;99.90
34406;DHT22;20658;45.630;8.886;2022-11-15T14:11:09;10.10;99.90
34406;DHT22;20658;45.630;8.886;2022-11-15T14:13:41;10.10;99.90
34406;DHT22;20658;45.630;8.886;2022-11-15T14:16:17;10.10;99.90
34406;DHT22;20658;45.630;8.886;2022-11-15T14:18:48;10.40;99.90
34406;DHT22;20658;45.630;8.886;2022-11-15T14:21:19;10.10;99.90
34406;DHT22;20658;45.630;8.886;2022-11-15T14:23:48;10.10;99.90
34406;DHT22;20658;45.630;8.886;2022-11-15T14:26:29;10.00;99.90
34406;DHT22;20658;45.630;8.886;2022-11-15T14:29:24;10.00;99.90
34406;DHT22;20658;45.630;8.886;2022-11-15T14:32:12;10.00;99.90
34406;DHT22;20658;45.630;8.886;2022-11-15T14:34:41;10.00;99.90
34406;DHT22;20658;45.630;8.886;2022-11-15T14:37:21;10.00;99.90
34406;DHT22;20658;45.630;8.886;2022-11-15T14:39:56;10.10;99.90
34406;DHT22;20658;45.630;8.886;2022-11-15T14:42:33;10.10;99.90
34406;DHT22;20658;45.630;8.886;2022-11-15T14:45:11;10.10;99.90
34406;DHT22;20658;45.630;8.886;2022-11-15T14:47:46;10.00;99.90
34406;DHT22;20658;45.630;8.886;2022-11-15T14:50:21;10.00;99.90
34406;DHT22;20658;45.630;8.886;2022-11-15T14:52:54;10.00;99.90
34406;DHT22;20658;45.630;8.886;2022-11-15T14:59:31;10.00;99.90
34406;DHT22;20658;45.630;8.886;2022-11-15T15:01:59;10.10;99.90
34406;DHT22;20658;45.630;8.886;2022-11-15T15:04:27;10.10;99.90
34406;DHT22;20658;45.630;8.886;2022-11-15T15:06:56;10.00;99.90
34406;DHT22;20658;45.630;8.886;2022-11-15T15:09:24;10.00;99.90
34406;DHT22;20658;45.630;8.886;2022-11-15T15:11:58;10.00;99.90
34406;DHT22;20658;45.630;8.886;2022-11-15T15:14:26;9.90;99.90
34406;DHT22;20658;45.630;8.886;2022-11-15T15:17:01;9.90;99.90
34406;DHT22;20658;45.630;8.886;2022-11-15T15:19:35;10.00;99.90
34406;DHT22;20658;45.630;8.886;2022-11-15T15:22:04;9.90;99.90
34406;DHT22;20658;45.630;8.886;2022-11-15T15:24:32;9.90;99.90
34406;DHT22;20658;45.630;8.886;2022-11-15T15:27:01;9.90;99.90
34406;DHT22;20658;45.630;8.886;2022-11-15T15:29:34;9.90;99.90
34406;DHT22;20658;45.630;8.886;2022-11-15T15:32:06;9.90;99.90
34406;DHT22;20658;45.630;8.886;2022-11-15T15:34:39;9.90;99.90
34406;DHT22;20658;45.630;8.886;2022-11-15T15:37:22;9.80;99.90
34406;DHT22;20658;45.630;8.886;2022-11-15T15:39:57;9.80;99.90
34406;DHT22;20658;45.630;8.886;2022-11-15T15:42:25;9.80;99.90
34406;DHT22;20658;45.630;8.886;2022-11-15T15:44:58;9.80;99.90
34406;DHT22;20658;45.630;8.886;2022-11-15T15:47:33;9.80;99.90
34406;DHT22;20658;45.630;8.886;2022-11-15T15:50:20;9.80;99.90
34406;DHT22;20658;45.630;8.886;2022-11-15T15:52:56;9.80;99.90
34406;DHT22;20658;45.630;8.886;2022-11-15T15:55:26;9.80;99.90
34406;DHT22;20658;45.630;8.886;2022-11-15T15:58:00;9.70;99.90
34406;DHT22;20658;45.630;8.886;2022-11-15T16:00:33;9.90;99.90
34406;DHT22;20658;45.630;8.886;2022-11-15T16:03:03;9.70;99.90
34406;DHT22;20658;45.630;8.886;2022-11-15T16:05:31;9.70;99.90
34406;DHT22;20658;45.630;8.886;2022-11-15T16:08:00;9.80;99.90
34406;DHT22;20658;45.630;8.886;2022-11-15T16:10:34;9.70;99.90
34406;DHT22;20658;45.630;8.886;2022-11-15T16:13:08;9.70;99.90
34406;DHT22;20658;45.630;8.886;2022-11-15T16:15:42;9.70;99.90
34406;DHT22;20658;45.630;8.886;2022-11-15T16:18:18;9.70;99.90
34406;DHT22;20658;45.630;8.886;2022-11-15T16:20:48;9.70;99.90
34406;DHT22;20658;45.630;8.886;2022-11-15T16:23:18;9.70;99.90
34406;DHT22;20658;45.630;8.886;2022-11-15T16:25:55;9.70;99.90
34406;DHT22;20658;45.630;8.886;2022-11-15T16:28:30;9.70;99.90
34406;DHT22;20658;45.630;8.886;2022-11-15T16:31:00;9.70;99.90
34406;DHT22;20658;45.630;8.886;2022-11-15T16:33:37;9.70;99.90
34406;DHT22;20658;45.630;8.886;2022-11-15T16:36:20;9.60;99.90
34406;DHT22;20658;45.630;8.886;2022-11-15T16:38:50;9.50;99.90
34406;DHT22;20658;45.630;8.886;2022-11-15T16:41:23;9.50;99.90
34406;DHT22;20658;45.630;8.886;2022-11-15T16:43:52;9.50;99.90
34406;DHT22;20658;45.630;8.886;2022-11-15T16:46:21;9.50;99.90
34406;DHT22;20658;45.630;8.886;2022-11-15T16:48:53;9.40;99.90
34406;DHT22;20658;45.630;8.886;2022-11-15T16:51:22;9.40;99.90
34406;DHT22;20658;45.630;8.886;2022-11-15T16:53:51;9.50;99.90
34406;DHT22;20658;45.630;8.886;2022-11-15T16:56:23;9.50;99.90
34406;DHT22;20658;45.630;8.886;2022-11-15T16:58:58;9.50;99.90
34406;DHT22;20658;45.630;8.886;2022-11-15T17:01:34;9.50;99.90
34406;DHT22;20658;45.630;8.886;2022-11-15T17:04:19;9.60;99.90
34406;DHT22;20658;45.630;8.886;2022-11-15T17:06:53;9.50;99.90
34406;DHT22;20658;45.630;8.886;2022-11-15T17:09:26;9.50;99.90
34406;DHT22;20658;45.630;8.886;2022-11-15T17:11:55;9.50;99.90
34406;DHT22;20658;45.630;8.886;2022-11-15T17:14:28;9.60;99.90
34406;DHT22;20658;45.630;8.886;2022-11-15T17:16:57;9.60;99.90
34406;DHT22;20658;45.630;8.886;2022-11-15T17:19:32;9.50;99.90
34406;DHT22;20658;45.630;8.886;2022-11-15T17:22:00;9.50;99.90
34406;DHT22;20658;45.630;8.886;2022-11-15T17:24:34;9.50;99.90
34406;DHT22;20658;45.630;8.886;2022-11-15T17:27:07;9.40;99.90
34406;DHT22;20658;45.630;8.886;2022-11-15T17:29:36;9.50;99.90
34406;DHT22;20658;45.630;8.886;2022-11-15T17:32:04;9.50;99.90
34406;DHT22;20658;45.630;8.886;2022-11-15T17:34:39;9.50;99.90
34406;DHT22;20658;45.630;8.886;2022-11-15T17:37:12;9.50;99.90
34406;DHT22;20658;45.630;8.886;2022-11-15T17:39:46;9.50;99.90
34406;DHT22;20658;45.630;8.886;2022-11-15T17:42:14;9.50;99.90
34406;DHT22;20658;45.630;8.886;2022-11-15T17:44:43;9.50;99.90
34406;DHT22;20658;45.630;8.886;2022-11-15T17:47:16;9.50;99.90
34406;DHT22;20658;45.630;8.886;2022-11-15T17:49:51;9.40;99.90
34406;DHT22;20658;45.630;8.886;2022-11-15T17:52:28;9.40;99.90